KDMN/DMN METAR and TAF weather

Enter ICAO airport designator
Station Type Date Time Source
KDMN METAR 2019/08/21 21:53 UTC NOAA

KDMN 212153Z AUTO 28004KT 10SM SCT100 36/10 A2998 RMK AO2 LTG DSNT ALQDS SLP064 T03560100


Station Type Date Time Source
KDMN Decoded METAR 2019/08/21 21:53 UTC NOAA

Station name not available
Aug 21, 2019 - 05:53 PM EDT / 2019.08.21 2153 UTC
Wind: from the W (280 degrees) at 5 MPH (4 KT):0
Visibility: 10 mile(s):0
Sky conditions: partly cloudy
Weather: Lightning observed
Temperature: 96.1 F (35.6 C)
Dew Point: 50.0 F (10.0 C)
Relative Humidity: 21%
Pressure (altimeter): 29.98 in. Hg (1015 hPa)
ob: KDMN 212153Z AUTO 28004KT 10SM SCT100 36/10 A2998 RMK AO2 LTG DSNT ALQDS SLP064 T03560100
cycle: 22

Station Type Date Time Source
KDMN TAF 2019/08/21 18:22 UTC NOAA

TAF KDMN 211720Z 2118/2218 13009KT P6SM FEW120 SCT200
FM212100 16007KT P6SM VCTS SCT060CB BKN120
TEMPO 2122/2202 VRB25G40KT 2SM TSRA BKN030CB
FM220300 17008KT P6SM SCT100 BKN200
FM221200 28007KT P6SM FEW120

Example: see airport list